sensor_id;sensor_type;location;lat;lon;timestamp;temperature;humidity
14749;DHT22;7466;53.574;9.976;2023-09-08T00:01:00;18.90;99.90
14749;DHT22;7466;53.574;9.976;2023-09-08T00:03:27;18.90;99.90
14749;DHT22;7466;53.574;9.976;2023-09-08T00:05:53;18.90;99.90
14749;DHT22;7466;53.574;9.976;2023-09-08T00:08:20;18.90;99.90
14749;DHT22;7466;53.574;9.976;2023-09-08T00:10:47;18.90;99.90
14749;DHT22;7466;53.574;9.976;2023-09-08T00:13:15;18.80;99.90
14749;DHT22;7466;53.574;9.976;2023-09-08T00:15:42;18.80;99.90
14749;DHT22;7466;53.574;9.976;2023-09-08T00:18:09;18.70;99.90
14749;DHT22;7466;53.574;9.976;2023-09-08T00:20:37;18.70;99.90
14749;DHT22;7466;53.574;9.976;2023-09-08T00:23:04;18.70;99.90
14749;DHT22;7466;53.574;9.976;2023-09-08T00:25:31;18.70;99.90
14749;DHT22;7466;53.574;9.976;2023-09-08T00:27:57;18.70;99.90
14749;DHT22;7466;53.574;9.976;2023-09-08T00:30:25;18.60;99.90
14749;DHT22;7466;53.574;9.976;2023-09-08T00:32:52;18.60;99.90
14749;DHT22;7466;53.574;9.976;2023-09-08T00:35:19;18.50;99.90
14749;DHT22;7466;53.574;9.976;2023-09-08T00:37:46;18.60;99.90
14749;DHT22;7466;53.574;9.976;2023-09-08T00:40:13;18.50;99.90
14749;DHT22;7466;53.574;9.976;2023-09-08T00:42:39;18.50;99.90
14749;DHT22;7466;53.574;9.976;2023-09-08T00:45:06;18.50;99.90
14749;DHT22;7466;53.574;9.976;2023-09-08T00:47:34;18.50;99.90
14749;DHT22;7466;53.574;9.976;2023-09-08T00:50:02;18.50;99.90
14749;DHT22;7466;53.574;9.976;2023-09-08T00:52:29;18.40;99.90
14749;DHT22;7466;53.574;9.976;2023-09-08T00:54:58;18.40;99.90
14749;DHT22;7466;53.574;9.976;2023-09-08T00:57:25;18.40;99.90
14749;DHT22;7466;53.574;9.976;2023-09-08T00:59:52;18.30;99.90
14749;DHT22;7466;53.574;9.976;2023-09-08T01:02:20;18.30;99.90
14749;DHT22;7466;53.574;9.976;2023-09-08T01:04:49;18.30;99.90
14749;DHT22;7466;53.574;9.976;2023-09-08T01:07:16;18.30;99.90
14749;DHT22;7466;53.574;9.976;2023-09-08T01:09:46;18.30;99.90
14749;DHT22;7466;53.574;9.976;2023-09-08T01:12:13;18.30;99.90
14749;DHT22;7466;53.574;9.976;2023-09-08T01:14:40;18.20;99.90
14749;DHT22;7466;53.574;9.976;2023-09-08T01:17:08;18.20;99.90
14749;DHT22;7466;53.574;9.976;2023-09-08T01:19:35;18.20;99.90
14749;DHT22;7466;53.574;9.976;2023-09-08T01:22:23;18.20;99.90
14749;DHT22;7466;53.574;9.976;2023-09-08T01:25:06;18.10;99.90
14749;DHT22;7466;53.574;9.976;2023-09-08T01:27:37;18.10;99.90
14749;DHT22;7466;53.574;9.976;2023-09-08T01:30:05;18.10;99.90
14749;DHT22;7466;53.574;9.976;2023-09-08T01:32:33;18.10;99.90
14749;DHT22;7466;53.574;9.976;2023-09-08T01:35:01;18.10;99.90
14749;DHT22;7466;53.574;9.976;2023-09-08T01:37:27;18.00;99.90
14749;DHT22;7466;53.574;9.976;2023-09-08T01:39:54;18.00;99.90
14749;DHT22;7466;53.574;9.976;2023-09-08T01:42:22;18.00;99.90
14749;DHT22;7466;53.574;9.976;2023-09-08T01:44:49;18.00;99.90
14749;DHT22;7466;53.574;9.976;2023-09-08T01:47:16;17.90;99.90
14749;DHT22;7466;53.574;9.976;2023-09-08T01:49:42;17.90;99.90
14749;DHT22;7466;53.574;9.976;2023-09-08T01:52:09;17.80;99.90
14749;DHT22;7466;53.574;9.976;2023-09-08T01:54:36;17.80;99.90
14749;DHT22;7466;53.574;9.976;2023-09-08T01:57:03;17.80;99.90
14749;DHT22;7466;53.574;9.976;2023-09-08T01:59:31;17.70;99.90
14749;DHT22;7466;53.574;9.976;2023-09-08T02:01:58;17.70;99.90
14749;DHT22;7466;53.574;9.976;2023-09-08T02:04:24;17.60;99.90
14749;DHT22;7466;53.574;9.976;2023-09-08T02:06:51;17.60;99.90
14749;DHT22;7466;53.574;9.976;2023-09-08T02:09:18;17.60;99.90
14749;DHT22;7466;53.574;9.976;2023-09-08T02:11:44;17.50;99.90
14749;DHT22;7466;53.574;9.976;2023-09-08T02:14:11;17.50;99.90
14749;DHT22;7466;53.574;9.976;2023-09-08T02:16:40;17.50;99.90
14749;DHT22;7466;53.574;9.976;2023-09-08T02:19:07;17.50;99.90
14749;DHT22;7466;53.574;9.976;2023-09-08T02:21:33;17.40;99.90
14749;DHT22;7466;53.574;9.976;2023-09-08T02:24:00;17.40;99.90
14749;DHT22;7466;53.574;9.976;2023-09-08T02:26:27;17.40;99.90
14749;DHT22;7466;53.574;9.976;2023-09-08T02:28:54;17.40;99.90
14749;DHT22;7466;53.574;9.976;2023-09-08T02:31:21;17.30;99.90
14749;DHT22;7466;53.574;9.976;2023-09-08T02:33:49;17.30;99.90
14749;DHT22;7466;53.574;9.976;2023-09-08T02:36:16;17.30;99.90
14749;DHT22;7466;53.574;9.976;2023-09-08T02:38:43;17.30;99.90
14749;DHT22;7466;53.574;9.976;2023-09-08T02:41:09;17.30;99.90
14749;DHT22;7466;53.574;9.976;2023-09-08T02:43:36;17.20;99.90
14749;DHT22;7466;53.574;9.976;2023-09-08T02:46:03;17.20;99.90
14749;DHT22;7466;53.574;9.976;2023-09-08T02:48:30;17.20;99.90
14749;DHT22;7466;53.574;9.976;2023-09-08T02:50:58;17.10;99.90
14749;DHT22;7466;53.574;9.976;2023-09-08T02:53:25;17.10;99.90
14749;DHT22;7466;53.574;9.976;2023-09-08T02:55:54;17.00;99.90
14749;DHT22;7466;53.574;9.976;2023-09-08T02:58:20;17.00;99.90
14749;DHT22;7466;53.574;9.976;2023-09-08T03:00:47;17.00;99.90
14749;DHT22;7466;53.574;9.976;2023-09-08T03:03:14;16.90;99.90
14749;DHT22;7466;53.574;9.976;2023-09-08T03:05:41;16.90;99.90
14749;DHT22;7466;53.574;9.976;2023-09-08T03:08:09;16.90;99.90
14749;DHT22;7466;53.574;9.976;2023-09-08T03:10:35;16.80;99.90
14749;DHT22;7466;53.574;9.976;2023-09-08T03:13:02;16.80;99.90
14749;DHT22;7466;53.574;9.976;2023-09-08T03:15:29;16.70;99.90
14749;DHT22;7466;53.574;9.976;2023-09-08T03:17:56;16.70;99.90
14749;DHT22;7466;53.574;9.976;2023-09-08T03:20:23;16.70;99.90
14749;DHT22;7466;53.574;9.976;2023-09-08T03:22:51;16.60;99.90
14749;DHT22;7466;53.574;9.976;2023-09-08T03:25:20;16.60;99.90
14749;DHT22;7466;53.574;9.976;2023-09-08T03:27:46;16.60;99.90
14749;DHT22;7466;53.574;9.976;2023-09-08T03:30:13;16.60;99.90
14749;DHT22;7466;53.574;9.976;2023-09-08T03:32:40;16.70;99.90
14749;DHT22;7466;53.574;9.976;2023-09-08T03:35:08;16.70;99.90
14749;DHT22;7466;53.574;9.976;2023-09-08T03:37:35;16.70;99.90
14749;DHT22;7466;53.574;9.976;2023-09-08T03:40:02;16.70;99.90
14749;DHT22;7466;53.574;9.976;2023-09-08T03:42:32;16.60;99.90
14749;DHT22;7466;53.574;9.976;2023-09-08T03:45:00;16.60;99.90
14749;DHT22;7466;53.574;9.976;2023-09-08T03:47:26;16.60;99.90
14749;DHT22;7466;53.574;9.976;2023-09-08T03:49:53;16.60;99.90
14749;DHT22;7466;53.574;9.976;2023-09-08T03:52:20;16.60;99.90
14749;DHT22;7466;53.574;9.976;2023-09-08T03:54:46;16.60;99.90
14749;DHT22;7466;53.574;9.976;2023-09-08T03:57:13;16.50;99.90
14749;DHT22;7466;53.574;9.976;2023-09-08T03:59:41;16.50;99.90
14749;DHT22;7466;53.574;9.976;2023-09-08T04:02:08;16.50;99.90
14749;DHT22;7466;53.574;9.976;2023-09-08T04:04:35;16.50;99.90
14749;DHT22;7466;53.574;9.976;2023-09-08T04:07:01;16.50;99.90
14749;DHT22;7466;53.574;9.976;2023-09-08T04:09:28;16.40;99.90
14749;DHT22;7466;53.574;9.976;2023-09-08T04:11:57;16.40;99.90
14749;DHT22;7466;53.574;9.976;2023-09-08T04:14:24;16.40;99.90
14749;DHT22;7466;53.574;9.976;2023-09-08T04:16:54;16.40;99.90
14749;DHT22;7466;53.574;9.976;2023-09-08T04:19:20;16.40;99.90
14749;DHT22;7466;53.574;9.976;2023-09-08T04:21:47;16.40;99.90
14749;DHT22;7466;53.574;9.976;2023-09-08T04:24:14;16.40;99.90
14749;DHT22;7466;53.574;9.976;2023-09-08T04:26:40;16.40;99.90
14749;DHT22;7466;53.574;9.976;2023-09-08T04:29:07;16.30;99.90
14749;DHT22;7466;53.574;9.976;2023-09-08T04:31:34;16.40;99.90
14749;DHT22;7466;53.574;9.976;2023-09-08T04:34:02;16.30;99.90
14749;DHT22;7466;53.574;9.976;2023-09-08T04:36:29;16.30;99.90
14749;DHT22;7466;53.574;9.976;2023-09-08T04:38:56;16.30;99.90
14749;DHT22;7466;53.574;9.976;2023-09-08T04:41:22;16.30;99.90
14749;DHT22;7466;53.574;9.976;2023-09-08T04:43:49;16.30;99.90
14749;DHT22;7466;53.574;9.976;2023-09-08T04:46:16;16.30;99.90
14749;DHT22;7466;53.574;9.976;2023-09-08T04:48:43;16.30;99.90
14749;DHT22;7466;53.574;9.976;2023-09-08T04:51:11;16.30;99.90
14749;DHT22;7466;53.574;9.976;2023-09-08T04:53:38;16.30;99.90
14749;DHT22;7466;53.574;9.976;2023-09-08T04:56:05;16.30;99.90
14749;DHT22;7466;53.574;9.976;2023-09-08T04:58:31;16.30;99.90
14749;DHT22;7466;53.574;9.976;2023-09-08T05:00:58;16.30;99.90
14749;DHT22;7466;53.574;9.976;2023-09-08T05:03:25;16.40;99.90
14749;DHT22;7466;53.574;9.976;2023-09-08T05:05:52;16.30;99.90
14749;DHT22;7466;53.574;9.976;2023-09-08T05:08:20;16.30;99.90
14749;DHT22;7466;53.574;9.976;2023-09-08T05:10:48;16.40;99.90
14749;DHT22;7466;53.574;9.976;2023-09-08T05:13:16;16.40;99.90
14749;DHT22;7466;53.574;9.976;2023-09-08T05:15:43;16.40;99.90
14749;DHT22;7466;53.574;9.976;2023-09-08T05:18:15;16.40;99.90
14749;DHT22;7466;53.574;9.976;2023-09-08T05:20:47;16.40;99.90
14749;DHT22;7466;53.574;9.976;2023-09-08T05:23:14;16.40;99.90
14749;DHT22;7466;53.574;9.976;2023-09-08T05:25:44;16.40;99.90
14749;DHT22;7466;53.574;9.976;2023-09-08T05:28:11;16.40;99.90
14749;DHT22;7466;53.574;9.976;2023-09-08T05:30:37;16.50;99.90
14749;DHT22;7466;53.574;9.976;2023-09-08T05:33:04;16.60;99.90
14749;DHT22;7466;53.574;9.976;2023-09-08T05:35:32;16.70;99.90
14749;DHT22;7466;53.574;9.976;2023-09-08T05:37:59;16.70;99.90
14749;DHT22;7466;53.574;9.976;2023-09-08T05:40:25;16.80;99.90
14749;DHT22;7466;53.574;9.976;2023-09-08T05:42:53;16.90;99.90
14749;DHT22;7466;53.574;9.976;2023-09-08T05:45:20;16.90;99.90
14749;DHT22;7466;53.574;9.976;2023-09-08T05:47:47;16.90;99.90
14749;DHT22;7466;53.574;9.976;2023-09-08T05:50:16;16.90;99.90
14749;DHT22;7466;53.574;9.976;2023-09-08T05:52:43;16.90;99.90
14749;DHT22;7466;53.574;9.976;2023-09-08T05:55:10;17.00;99.90
14749;DHT22;7466;53.574;9.976;2023-09-08T05:57:36;17.00;99.90
14749;DHT22;7466;53.574;9.976;2023-09-08T06:00:06;17.10;99.90
14749;DHT22;7466;53.574;9.976;2023-09-08T06:02:34;17.10;99.90
14749;DHT22;7466;53.574;9.976;2023-09-08T06:05:01;17.20;99.90
14749;DHT22;7466;53.574;9.976;2023-09-08T06:07:27;17.30;99.90
14749;DHT22;7466;53.574;9.976;2023-09-08T06:10:04;17.30;99.90
14749;DHT22;7466;53.574;9.976;2023-09-08T06:12:31;17.40;99.90
14749;DHT22;7466;53.574;9.976;2023-09-08T06:14:58;17.40;99.90
14749;DHT22;7466;53.574;9.976;2023-09-08T06:17:26;17.60;99.90
14749;DHT22;7466;53.574;9.976;2023-09-08T06:19:53;17.70;99.90
14749;DHT22;7466;53.574;9.976;2023-09-08T06:22:20;17.70;99.90
14749;DHT22;7466;53.574;9.976;2023-09-08T06:24:46;17.80;99.90
14749;DHT22;7466;53.574;9.976;2023-09-08T06:27:14;18.00;99.90
14749;DHT22;7466;53.574;9.976;2023-09-08T06:29:41;18.00;99.90
14749;DHT22;7466;53.574;9.976;2023-09-08T06:32:09;18.10;99.90
14749;DHT22;7466;53.574;9.976;2023-09-08T06:34:38;18.20;99.90
14749;DHT22;7466;53.574;9.976;2023-09-08T06:37:04;18.40;99.90
14749;DHT22;7466;53.574;9.976;2023-09-08T06:39:32;18.50;99.90
14749;DHT22;7466;53.574;9.976;2023-09-08T06:42:03;18.60;99.90
14749;DHT22;7466;53.574;9.976;2023-09-08T06:44:30;18.70;99.90
14749;DHT22;7466;53.574;9.976;2023-09-08T06:46:57;18.80;99.90
14749;DHT22;7466;53.574;9.976;2023-09-08T06:49:24;18.80;99.90
14749;DHT22;7466;53.574;9.976;2023-09-08T06:51:52;18.90;99.90
14749;DHT22;7466;53.574;9.976;2023-09-08T06:54:18;19.10;99.90
14749;DHT22;7466;53.574;9.976;2023-09-08T06:56:45;19.20;99.90
14749;DHT22;7466;53.574;9.976;2023-09-08T06:59:12;19.30;99.90
14749;DHT22;7466;53.574;9.976;2023-09-08T07:01:38;19.50;99.90
14749;DHT22;7466;53.574;9.976;2023-09-08T07:04:05;19.60;99.90
14749;DHT22;7466;53.574;9.976;2023-09-08T07:06:32;19.70;99.90
14749;DHT22;7466;53.574;9.976;2023-09-08T07:09:01;19.80;99.90
14749;DHT22;7466;53.574;9.976;2023-09-08T07:11:28;19.90;99.90
14749;DHT22;7466;53.574;9.976;2023-09-08T07:13:56;19.90;99.90
14749;DHT22;7466;53.574;9.976;2023-09-08T07:16:22;20.10;99.90
14749;DHT22;7466;53.574;9.976;2023-09-08T07:18:50;20.20;99.90
14749;DHT22;7466;53.574;9.976;2023-09-08T07:21:17;20.20;99.90
14749;DHT22;7466;53.574;9.976;2023-09-08T07:23:44;20.20;99.90
14749;DHT22;7466;53.574;9.976;2023-09-08T07:26:21;20.30;99.90
14749;DHT22;7466;53.574;9.976;2023-09-08T07:28:48;20.40;99.90
14749;DHT22;7466;53.574;9.976;2023-09-08T07:31:16;20.40;99.90
14749;DHT22;7466;53.574;9.976;2023-09-08T07:33:43;20.50;99.90
14749;DHT22;7466;53.574;9.976;2023-09-08T07:36:15;20.50;99.90
14749;DHT22;7466;53.574;9.976;2023-09-08T07:38:47;20.70;99.90
14749;DHT22;7466;53.574;9.976;2023-09-08T07:41:14;20.80;99.90
14749;DHT22;7466;53.574;9.976;2023-09-08T07:43:42;20.90;99.90
14749;DHT22;7466;53.574;9.976;2023-09-08T07:46:11;20.90;99.90
14749;DHT22;7466;53.574;9.976;2023-09-08T07:48:48;21.00;99.90
14749;DHT22;7466;53.574;9.976;2023-09-08T07:51:23;20.90;99.90
14749;DHT22;7466;53.574;9.976;2023-09-08T07:54:01;21.10;99.90
14749;DHT22;7466;53.574;9.976;2023-09-08T07:56:29;21.20;99.90
14749;DHT22;7466;53.574;9.976;2023-09-08T07:58:57;21.30;99.90
14749;DHT22;7466;53.574;9.976;2023-09-08T08:01:24;21.40;99.90
14749;DHT22;7466;53.574;9.976;2023-09-08T08:03:50;21.50;99.90
14749;DHT22;7466;53.574;9.976;2023-09-08T08:06:17;21.60;99.90
14749;DHT22;7466;53.574;9.976;2023-09-08T08:08:53;21.60;99.90
14749;DHT22;7466;53.574;9.976;2023-09-08T08:11:24;21.70;99.90
14749;DHT22;7466;53.574;9.976;2023-09-08T08:13:57;21.80;99.90
14749;DHT22;7466;53.574;9.976;2023-09-08T08:16:24;22.00;99.90
14749;DHT22;7466;53.574;9.976;2023-09-08T08:18:51;22.10;99.90
14749;DHT22;7466;53.574;9.976;2023-09-08T08:21:33;22.20;99.90
14749;DHT22;7466;53.574;9.976;2023-09-08T08:24:07;22.20;99.90
14749;DHT22;7466;53.574;9.976;2023-09-08T08:26:34;22.30;99.90
14749;DHT22;7466;53.574;9.976;2023-09-08T08:29:17;22.40;99.90
14749;DHT22;7466;53.574;9.976;2023-09-08T08:31:44;22.30;99.90
14749;DHT22;7466;53.574;9.976;2023-09-08T08:34:32;22.50;99.90
14749;DHT22;7466;53.574;9.976;2023-09-08T08:37:10;22.70;99.90
14749;DHT22;7466;53.574;9.976;2023-09-08T08:39:37;22.90;99.90
14749;DHT22;7466;53.574;9.976;2023-09-08T08:42:07;23.00;99.90
14749;DHT22;7466;53.574;9.976;2023-09-08T08:44:50;23.00;99.90
14749;DHT22;7466;53.574;9.976;2023-09-08T08:47:27;23.00;99.90
14749;DHT22;7466;53.574;9.976;2023-09-08T08:50:00;23.00;99.90
14749;DHT22;7466;53.574;9.976;2023-09-08T08:52:38;23.10;99.90
14749;DHT22;7466;53.574;9.976;2023-09-08T08:55:06;23.30;99.90
14749;DHT22;7466;53.574;9.976;2023-09-08T08:57:43;23.50;99.90
14749;DHT22;7466;53.574;9.976;2023-09-08T09:00:12;23.80;99.90
14749;DHT22;7466;53.574;9.976;2023-09-08T09:02:41;24.00;99.90
14749;DHT22;7466;53.574;9.976;2023-09-08T09:05:17;24.10;99.90
14749;DHT22;7466;53.574;9.976;2023-09-08T09:07:45;24.30;99.90
14749;DHT22;7466;53.574;9.976;2023-09-08T09:10:11;24.80;99.90
14749;DHT22;7466;53.574;9.976;2023-09-08T09:12:39;25.20;99.90
14749;DHT22;7466;53.574;9.976;2023-09-08T09:15:07;25.50;99.90
14749;DHT22;7466;53.574;9.976;2023-09-08T09:17:36;25.90;99.90
14749;DHT22;7466;53.574;9.976;2023-09-08T09:20:12;26.20;99.90
14749;DHT22;7466;53.574;9.976;2023-09-08T09:22:41;26.60;99.90
14749;DHT22;7466;53.574;9.976;2023-09-08T09:25:08;26.40;99.90
14749;DHT22;7466;53.574;9.976;2023-09-08T09:27:41;26.30;99.90
14749;DHT22;7466;53.574;9.976;2023-09-08T09:30:11;26.30;99.90
14749;DHT22;7466;53.574;9.976;2023-09-08T09:32:41;26.40;99.90
14749;DHT22;7466;53.574;9.976;2023-09-08T09:35:39;26.50;99.90
14749;DHT22;7466;53.574;9.976;2023-09-08T09:38:06;27.10;99.90
14749;DHT22;7466;53.574;9.976;2023-09-08T09:40:37;26.90;99.90
14749;DHT22;7466;53.574;9.976;2023-09-08T09:43:08;27.00;99.90
14749;DHT22;7466;53.574;9.976;2023-09-08T09:45:39;27.00;99.90
14749;DHT22;7466;53.574;9.976;2023-09-08T09:48:11;27.30;99.90
14749;DHT22;7466;53.574;9.976;2023-09-08T09:50:40;27.40;99.90
14749;DHT22;7466;53.574;9.976;2023-09-08T09:53:11;28.10;99.90
14749;DHT22;7466;53.574;9.976;2023-09-08T09:55:39;28.40;97.70
14749;DHT22;7466;53.574;9.976;2023-09-08T09:58:07;28.30;98.70
14749;DHT22;7466;53.574;9.976;2023-09-08T10:00:36;28.10;99.90
14749;DHT22;7466;53.574;9.976;2023-09-08T10:03:15;28.50;98.20
14749;DHT22;7466;53.574;9.976;2023-09-08T10:05:42;28.30;98.60
14749;DHT22;7466;53.574;9.976;2023-09-08T10:08:09;28.60;95.90
14749;DHT22;7466;53.574;9.976;2023-09-08T10:10:37;28.80;96.00
14749;DHT22;7466;53.574;9.976;2023-09-08T10:13:07;29.30;93.70
14749;DHT22;7466;53.574;9.976;2023-09-08T10:15:43;29.60;93.20
14749;DHT22;7466;53.574;9.976;2023-09-08T10:18:31;29.20;92.80
14749;DHT22;7466;53.574;9.976;2023-09-08T10:21:04;29.00;92.60
14749;DHT22;7466;53.574;9.976;2023-09-08T10:23:45;28.90;92.90
14749;DHT22;7466;53.574;9.976;2023-09-08T10:26:16;29.10;93.80
14749;DHT22;7466;53.574;9.976;2023-09-08T10:28:44;29.20;93.10
14749;DHT22;7466;53.574;9.976;2023-09-08T10:31:12;29.00;93.70
14749;DHT22;7466;53.574;9.976;2023-09-08T10:33:42;29.20;93.50
14749;DHT22;7466;53.574;9.976;2023-09-08T10:36:27;29.20;95.00
14749;DHT22;7466;53.574;9.976;2023-09-08T10:38:54;29.50;94.10
14749;DHT22;7466;53.574;9.976;2023-09-08T10:41:35;29.20;94.30
14749;DHT22;7466;53.574;9.976;2023-09-08T10:44:07;29.50;92.60
14749;DHT22;7466;53.574;9.976;2023-09-08T10:46:34;29.50;93.10
14749;DHT22;7466;53.574;9.976;2023-09-08T10:49:19;29.60;93.20
14749;DHT22;7466;53.574;9.976;2023-09-08T10:52:06;29.80;91.70
14749;DHT22;7466;53.574;9.976;2023-09-08T10:54:43;30.20;90.10
14749;DHT22;7466;53.574;9.976;2023-09-08T10:57:13;29.90;91.20
14749;DHT22;7466;53.574;9.976;2023-09-08T10:59:41;29.80;92.40
14749;DHT22;7466;53.574;9.976;2023-09-08T11:02:32;29.80;92.60
14749;DHT22;7466;53.574;9.976;2023-09-08T11:05:00;29.80;91.70
14749;DHT22;7466;53.574;9.976;2023-09-08T11:07:27;29.60;91.10
14749;DHT22;7466;53.574;9.976;2023-09-08T11:09:54;29.80;93.20
14749;DHT22;7466;53.574;9.976;2023-09-08T11:12:44;30.40;90.20
14749;DHT22;7466;53.574;9.976;2023-09-08T11:15:11;30.20;91.20
14749;DHT22;7466;53.574;9.976;2023-09-08T11:17:38;30.30;90.20
14749;DHT22;7466;53.574;9.976;2023-09-08T11:20:14;30.10;90.80
14749;DHT22;7466;53.574;9.976;2023-09-08T11:22:48;30.20;90.40
14749;DHT22;7466;53.574;9.976;2023-09-08T11:25:15;30.20;91.00
14749;DHT22;7466;53.574;9.976;2023-09-08T11:27:50;30.10;89.10
14749;DHT22;7466;53.574;9.976;2023-09-08T11:30:40;30.60;88.80
14749;DHT22;7466;53.574;9.976;2023-09-08T11:33:19;31.20;86.00
14749;DHT22;7466;53.574;9.976;2023-09-08T11:36:02;30.60;86.70
14749;DHT22;7466;53.574;9.976;2023-09-08T11:38:43;30.90;84.50
14749;DHT22;7466;53.574;9.976;2023-09-08T11:41:11;31.00;82.80
14749;DHT22;7466;53.574;9.976;2023-09-08T11:43:37;30.90;82.30
14749;DHT22;7466;53.574;9.976;2023-09-08T11:46:16;30.90;83.30
14749;DHT22;7466;53.574;9.976;2023-09-08T11:48:52;30.90;82.70
14749;DHT22;7466;53.574;9.976;2023-09-08T11:51:36;31.10;80.90
14749;DHT22;7466;53.574;9.976;2023-09-08T11:54:12;31.70;79.00
14749;DHT22;7466;53.574;9.976;2023-09-08T11:57:09;31.30;81.10
14749;DHT22;7466;53.574;9.976;2023-09-08T11:59:50;31.20;79.80
14749;DHT22;7466;53.574;9.976;2023-09-08T12:02:17;31.40;81.20
14749;DHT22;7466;53.574;9.976;2023-09-08T12:04:50;32.40;80.30
14749;DHT22;7466;53.574;9.976;2023-09-08T12:07:20;32.40;77.20
14749;DHT22;7466;53.574;9.976;2023-09-08T12:09:47;32.00;78.70
14749;DHT22;7466;53.574;9.976;2023-09-08T12:12:19;32.50;76.10
14749;DHT22;7466;53.574;9.976;2023-09-08T12:14:52;32.50;76.00
14749;DHT22;7466;53.574;9.976;2023-09-08T12:17:22;32.10;77.60
14749;DHT22;7466;53.574;9.976;2023-09-08T12:19:51;32.30;77.10
14749;DHT22;7466;53.574;9.976;2023-09-08T12:22:19;32.80;75.50
14749;DHT22;7466;53.574;9.976;2023-09-08T12:24:56;33.20;73.90
14749;DHT22;7466;53.574;9.976;2023-09-08T12:27:24;33.20;73.40
14749;DHT22;7466;53.574;9.976;2023-09-08T12:29:55;33.60;71.80
14749;DHT22;7466;53.574;9.976;2023-09-08T12:32:32;33.60;69.10
14749;DHT22;7466;53.574;9.976;2023-09-08T12:34:59;33.20;67.50
14749;DHT22;7466;53.574;9.976;2023-09-08T12:37:29;33.50;66.60
14749;DHT22;7466;53.574;9.976;2023-09-08T12:40:15;33.30;68.30
14749;DHT22;7466;53.574;9.976;2023-09-08T12:42:44;33.20;68.20
14749;DHT22;7466;53.574;9.976;2023-09-08T12:45:14;33.50;63.80
14749;DHT22;7466;53.574;9.976;2023-09-08T12:47:41;33.00;63.70
14749;DHT22;7466;53.574;9.976;2023-09-08T12:50:08;33.30;63.20
14749;DHT22;7466;53.574;9.976;2023-09-08T12:52:50;33.10;63.50
14749;DHT22;7466;53.574;9.976;2023-09-08T12:55:20;32.90;63.30
14749;DHT22;7466;53.574;9.976;2023-09-08T12:57:53;32.90;63.40
14749;DHT22;7466;53.574;9.976;2023-09-08T13:00:37;33.70;62.20
14749;DHT22;7466;53.574;9.976;2023-09-08T13:03:04;34.00;60.80
14749;DHT22;7466;53.574;9.976;2023-09-08T13:05:46;33.60;60.40
14749;DHT22;7466;53.574;9.976;2023-09-08T13:08:31;33.60;60.30
14749;DHT22;7466;53.574;9.976;2023-09-08T13:10:57;33.40;60.60
14749;DHT22;7466;53.574;9.976;2023-09-08T13:13:28;34.10;59.20
14749;DHT22;7466;53.574;9.976;2023-09-08T13:15:56;33.80;59.70
14749;DHT22;7466;53.574;9.976;2023-09-08T13:18:23;34.20;59.20
14749;DHT22;7466;53.574;9.976;2023-09-08T13:20:50;34.50;58.50
14749;DHT22;7466;53.574;9.976;2023-09-08T13:23:16;34.70;58.20
14749;DHT22;7466;53.574;9.976;2023-09-08T13:25:49;35.30;56.90
14749;DHT22;7466;53.574;9.976;2023-09-08T13:28:16;36.70;55.50
14749;DHT22;7466;53.574;9.976;2023-09-08T13:30:43;37.10;53.60
14749;DHT22;7466;53.574;9.976;2023-09-08T13:33:13;37.10;53.00
14749;DHT22;7466;53.574;9.976;2023-09-08T13:35:42;36.70;53.10
14749;DHT22;7466;53.574;9.976;2023-09-08T13:38:34;37.00;54.00
14749;DHT22;7466;53.574;9.976;2023-09-08T13:41:02;36.50;53.10
14749;DHT22;7466;53.574;9.976;2023-09-08T13:43:29;34.70;55.20
14749;DHT22;7466;53.574;9.976;2023-09-08T13:46:02;34.10;57.40
14749;DHT22;7466;53.574;9.976;2023-09-08T13:48:41;33.60;58.30
14749;DHT22;7466;53.574;9.976;2023-09-08T13:51:08;32.70;60.00
14749;DHT22;7466;53.574;9.976;2023-09-08T13:53:44;32.00;62.50
14749;DHT22;7466;53.574;9.976;2023-09-08T13:56:12;31.30;64.10
14749;DHT22;7466;53.574;9.976;2023-09-08T13:58:39;31.10;64.60
14749;DHT22;7466;53.574;9.976;2023-09-08T14:01:07;31.60;65.60
14749;DHT22;7466;53.574;9.976;2023-09-08T14:03:33;31.30;65.10
14749;DHT22;7466;53.574;9.976;2023-09-08T14:06:00;30.90;66.20
14749;DHT22;7466;53.574;9.976;2023-09-08T14:08:27;30.60;67.60
14749;DHT22;7466;53.574;9.976;2023-09-08T14:10:53;30.60;68.00
14749;DHT22;7466;53.574;9.976;2023-09-08T14:13:21;30.40;68.90
14749;DHT22;7466;53.574;9.976;2023-09-08T14:15:48;30.30;69.40
14749;DHT22;7466;53.574;9.976;2023-09-08T14:18:15;30.10;70.40
14749;DHT22;7466;53.574;9.976;2023-09-08T14:20:42;30.00;70.90
14749;DHT22;7466;53.574;9.976;2023-09-08T14:23:09;30.00;70.60
14749;DHT22;7466;53.574;9.976;2023-09-08T14:25:36;30.10;70.70
14749;DHT22;7466;53.574;9.976;2023-09-08T14:28:03;30.10;70.90
14749;DHT22;7466;53.574;9.976;2023-09-08T14:30:31;29.80;73.70
14749;DHT22;7466;53.574;9.976;2023-09-08T14:32:58;29.70;73.00
14749;DHT22;7466;53.574;9.976;2023-09-08T14:35:25;29.70;73.40
14749;DHT22;7466;53.574;9.976;2023-09-08T14:37:52;29.80;73.10
14749;DHT22;7466;53.574;9.976;2023-09-08T14:40:19;29.90;73.20
14749;DHT22;7466;53.574;9.976;2023-09-08T14:42:48;29.80;73.70
14749;DHT22;7466;53.574;9.976;2023-09-08T14:45:15;29.60;73.50
14749;DHT22;7466;53.574;9.976;2023-09-08T14:47:43;29.50;74.40
14749;DHT22;7466;53.574;9.976;2023-09-08T14:50:09;29.40;75.10
14749;DHT22;7466;53.574;9.976;2023-09-08T14:52:36;29.30;77.00
14749;DHT22;7466;53.574;9.976;2023-09-08T14:55:05;29.40;75.70
14749;DHT22;7466;53.574;9.976;2023-09-08T14:57:33;29.40;76.30
14749;DHT22;7466;53.574;9.976;2023-09-08T15:00:00;29.30;78.20
14749;DHT22;7466;53.574;9.976;2023-09-08T15:02:26;29.10;77.40
14749;DHT22;7466;53.574;9.976;2023-09-08T15:04:54;29.10;77.70
14749;DHT22;7466;53.574;9.976;2023-09-08T15:07:21;29.10;77.70
14749;DHT22;7466;53.574;9.976;2023-09-08T15:09:48;29.10;78.30
14749;DHT22;7466;53.574;9.976;2023-09-08T15:12:16;29.10;78.40
14749;DHT22;7466;53.574;9.976;2023-09-08T15:14:43;29.00;79.90
14749;DHT22;7466;53.574;9.976;2023-09-08T15:17:11;28.90;79.00
14749;DHT22;7466;53.574;9.976;2023-09-08T15:19:39;28.90;79.80
14749;DHT22;7466;53.574;9.976;2023-09-08T15:22:07;28.90;81.90
14749;DHT22;7466;53.574;9.976;2023-09-08T15:24:34;28.80;80.40
14749;DHT22;7466;53.574;9.976;2023-09-08T15:27:01;28.90;82.10
14749;DHT22;7466;53.574;9.976;2023-09-08T15:29:28;28.90;80.70
14749;DHT22;7466;53.574;9.976;2023-09-08T15:31:55;28.90;80.50
14749;DHT22;7466;53.574;9.976;2023-09-08T15:34:22;28.80;81.30
14749;DHT22;7466;53.574;9.976;2023-09-08T15:36:48;28.80;80.60
14749;DHT22;7466;53.574;9.976;2023-09-08T15:39:18;28.70;81.30
14749;DHT22;7466;53.574;9.976;2023-09-08T15:41:46;28.70;80.50
14749;DHT22;7466;53.574;9.976;2023-09-08T15:44:13;28.70;81.30
14749;DHT22;7466;53.574;9.976;2023-09-08T15:46:40;28.60;81.40
14749;DHT22;7466;53.574;9.976;2023-09-08T15:49:07;28.50;81.40
14749;DHT22;7466;53.574;9.976;2023-09-08T15:51:33;28.60;80.20
14749;DHT22;7466;53.574;9.976;2023-09-08T15:54:00;28.70;80.80
14749;DHT22;7466;53.574;9.976;2023-09-08T15:56:29;28.60;80.90
14749;DHT22;7466;53.574;9.976;2023-09-08T15:58:56;28.60;81.10